Mobile Downtown Airport
KBFM : now visible

Airfield :











YOU CAN JOIN US ON...

 
LOGIN :

Register | Disclaimer

   EN    FR    IT 

 









Legend :    VFR   Marginal VFR   IFR   Intensive IFR   Very Intensive IFR
Visi :
Ceiling :
>= 8 km
>= 3000ft
5 to 8 km
1000 to 3000 ft
1500m to 5 km
500 to 1000 ft
800 to 1500m
200 to 500 ft
< 800m
< 200 ft
Symbols :   Thunderstorms  Fog  Heavy snow  Heavy precipitations  Wind > 20 kt






- Airport Elevation : 26 ft


KBFM - Mobile Downtown

CURRENT METAR :
  • 041553Z VRB04KT 10SM FEW035 33/21 A3000 RMK AO2 SLP158 T03330206

EXPIRED METARs :
  • 041453Z 00000KT 10SM CLR 32/23 A3000 RMK AO2 SLP158 T03220228 51008
  • 041353Z 00000KT 10SM CLR 32/22 A2999 RMK AO2 SLP156 T03170222

TAF KBFM
Valid from the 04 at 12:00 until the 05 at 12:00 UTC


041120Z 0412/0512 VRB03KT P6SM SKC
FM042100 22006KT P6SM FEW060 FEW250
FM050100 24004KT P6SM FEW200
KZHU FIR / North America



MET'MAP, your aeronautical weather chart ! - Copyright ORBIFLY December 2007 - Disclaimer

ORBIFLY MET'MAP TEAM :

Programming & Development : Alexandra Zaïnal
Concept & original design : Baudouin d'Aumeries
Assistance for programming : Marc-Olivier Méhu
Technical & hardware support : Manuel Goepfert

Contact : metmap@orbifly.com




SOURCES & CREDITS :

   NOAA       Earth
Advisory